8分钟前
罗盘
风向 的 风向 的 风向 到 风向 340° Groningen Airport Eelde 5/23
风: 18 千吨, 5 beaufort
0 500 1.500 3.000 5.000 8.000 10.000
FEW 6.900 ft
METAR EHLW 201655Z AUTO 34018KT 310V010 9999 FEW069 03/M01 Q1028 BLU TEMPO 34020G30KT 4000 SHRA FEW015 BKN025

METAR定义 | 嵌入

24小时趋势

航班类别VFRLIFR
温度7 °C1 °C
风速30 千吨0 千吨
能见度10 公里+0 米

更多历史数据

下载我们的安卓应用程序

从你的主屏幕上轻松地访问你的航空天气。
只需一次付费,您就可以获得无广告的体验。

您会帮助我们保持Metar-Taf.com正常运行吗?
您的贡献有助于网站的进一步开发并支付费用。

没有更多广告

您是捐款5美元还是更多?然后,我们将永远不会再向您展示广告,这是我们永恒的感谢!
捐赠前先登录

METAR Groningen Airport Eelde

Groningen Airport Eelde是Groningen,荷兰中的中型机场。 机场有{a,plural,=1{一条跑道} other{#跑道}}: 5/23

Groningen Airport Eelde最近未发布观察结果。相反,我们向您显示56 km的报告Leeuwarden Air Base。 该报告是针对2022年1月20日 17:55, 当地时间进行的。

机场观察

风来自北北西 (340°)方向,速度为18 千吨。 风向在北西 (310°)和北 (010°)之间变化。

可见度为10 公里 或者更多。

有几云在6.900 ft的高度。 没有观察到天花板。

温度为3 °C,阵风为-5 °C。 露点为-1 °C,相对湿度为75%。 海平面上的气压为1028 压力 (QNH)。

发展趋势

  • 暂时的

    风来自北北西 (340°)方向,速度为20 千吨。 预计30 千吨阵风。 可见性变为4 公里。 重大天气:阵雨 雨。 几云在1.500 ft的高度 和 碎云在2.500 ft的高度.

白天

今天,太阳从08:34升起,在16:55降落。 这适用于Groningen Airport Eelde,世界夏令时可能有所不同。 当地时间与世界标准时间之间的时差为+1 小时。 当前,没有夏令时有效。

公司介绍

在这个机场,你可以找到飞行学校。 这个机场上的公司有Noord Nederlandse Aeroclub- Eelde, Martinair Flight Academy, KLM Luchtvaartschool, EFTC 和 KLM Flight Academy。

体会

到Vliegles.nl去找飞行课程,跳伞和其他飞行体验。 浏览页面,了解Groningen Airport Eelde附近所有可用的活动。 你也可以使用搜索功能来寻找你所在地附近的特定飞行课程、跳伞或其他飞行体验。

您是否要在网站上Groningen Airport Eelde飞行的天气? 阅读更多   自由!